sensor_id;sensor_type;location;lat;lon;timestamp;P1;durP1;ratioP1;P2;durP2;ratioP2
55368;SDS011;41247;49.736;8.752;2023-03-14T00:03:18;3.95;;;0.90;;
55368;SDS011;41247;49.736;8.752;2023-03-14T00:06:58;1.98;;;0.77;;
55368;SDS011;41247;49.736;8.752;2023-03-14T00:10:39;3.53;;;0.90;;
55368;SDS011;41247;49.736;8.752;2023-03-14T00:14:20;4.05;;;1.30;;
55368;SDS011;41247;49.736;8.752;2023-03-14T00:18:00;2.97;;;0.90;;
55368;SDS011;41247;49.736;8.752;2023-03-14T00:21:41;5.38;;;1.02;;
55368;SDS011;41247;49.736;8.752;2023-03-14T00:25:22;2.10;;;0.85;;
55368;SDS011;41247;49.736;8.752;2023-03-14T00:29:02;2.00;;;0.80;;
55368;SDS011;41247;49.736;8.752;2023-03-14T00:32:43;2.13;;;0.68;;
55368;SDS011;41247;49.736;8.752;2023-03-14T00:36:23;1.58;;;0.80;;
55368;SDS011;41247;49.736;8.752;2023-03-14T00:40:04;6.50;;;1.25;;
55368;SDS011;41247;49.736;8.752;2023-03-14T00:43:46;8.15;;;1.13;;
55368;SDS011;41247;49.736;8.752;2023-03-14T00:47:26;3.33;;;0.90;;
55368;SDS011;41247;49.736;8.752;2023-03-14T00:51:08;5.28;;;1.05;;
55368;SDS011;41247;49.736;8.752;2023-03-14T00:54:48;2.47;;;0.95;;
55368;SDS011;41247;49.736;8.752;2023-03-14T00:58:29;7.03;;;1.13;;
55368;SDS011;41247;49.736;8.752;2023-03-14T01:02:10;3.35;;;1.00;;
55368;SDS011;41247;49.736;8.752;2023-03-14T01:05:50;4.13;;;1.00;;
55368;SDS011;41247;49.736;8.752;2023-03-14T01:09:31;4.53;;;0.80;;
55368;SDS011;41247;49.736;8.752;2023-03-14T01:13:12;10.40;;;1.23;;
55368;SDS011;41247;49.736;8.752;2023-03-14T01:16:52;3.85;;;1.00;;
55368;SDS011;41247;49.736;8.752;2023-03-14T01:20:33;5.00;;;1.05;;
55368;SDS011;41247;49.736;8.752;2023-03-14T01:24:17;4.72;;;0.95;;
55368;SDS011;41247;49.736;8.752;2023-03-14T01:27:57;4.47;;;0.98;;
55368;SDS011;41247;49.736;8.752;2023-03-14T01:31:38;5.47;;;1.10;;
55368;SDS011;41247;49.736;8.752;2023-03-14T01:35:18;3.92;;;1.10;;
55368;SDS011;41247;49.736;8.752;2023-03-14T01:38:59;3.30;;;0.73;;
55368;SDS011;41247;49.736;8.752;2023-03-14T01:42:44;6.65;;;1.10;;
55368;SDS011;41247;49.736;8.752;2023-03-14T01:50:23;3.58;;;1.10;;
55368;SDS011;41247;49.736;8.752;2023-03-14T01:54:05;6.32;;;1.15;;
55368;SDS011;41247;49.736;8.752;2023-03-14T01:57:58;3.80;;;1.15;;
55368;SDS011;41247;49.736;8.752;2023-03-14T02:01:43;5.78;;;1.05;;
55368;SDS011;41247;49.736;8.752;2023-03-14T02:05:28;5.87;;;1.33;;
55368;SDS011;41247;49.736;8.752;2023-03-14T02:09:12;2.30;;;1.00;;
55368;SDS011;41247;49.736;8.752;2023-03-14T02:12:53;2.45;;;1.20;;
55368;SDS011;41247;49.736;8.752;2023-03-14T02:16:36;4.78;;;1.27;;
55368;SDS011;41247;49.736;8.752;2023-03-14T02:24:33;4.28;;;1.35;;
55368;SDS011;41247;49.736;8.752;2023-03-14T02:28:20;8.90;;;1.47;;
55368;SDS011;41247;49.736;8.752;2023-03-14T02:32:01;5.82;;;1.50;;
55368;SDS011;41247;49.736;8.752;2023-03-14T02:35:46;8.00;;;1.60;;
55368;SDS011;41247;49.736;8.752;2023-03-14T02:39:38;6.70;;;1.33;;
55368;SDS011;41247;49.736;8.752;2023-03-14T02:43:22;5.05;;;1.50;;
55368;SDS011;41247;49.736;8.752;2023-03-14T02:47:03;10.70;;;1.83;;
55368;SDS011;41247;49.736;8.752;2023-03-14T02:50:45;7.60;;;1.67;;
55368;SDS011;41247;49.736;8.752;2023-03-14T02:54:28;4.03;;;1.30;;
55368;SDS011;41247;49.736;8.752;2023-03-14T02:58:08;6.18;;;1.40;;
55368;SDS011;41247;49.736;8.752;2023-03-14T03:01:49;3.38;;;1.10;;
55368;SDS011;41247;49.736;8.752;2023-03-14T03:05:30;4.15;;;0.95;;
55368;SDS011;41247;49.736;8.752;2023-03-14T03:09:10;4.30;;;0.95;;
55368;SDS011;41247;49.736;8.752;2023-03-14T03:12:51;5.15;;;1.30;;
55368;SDS011;41247;49.736;8.752;2023-03-14T03:16:31;3.22;;;1.10;;
55368;SDS011;41247;49.736;8.752;2023-03-14T03:20:12;6.05;;;1.10;;
55368;SDS011;41247;49.736;8.752;2023-03-14T03:23:53;3.00;;;0.90;;
55368;SDS011;41247;49.736;8.752;2023-03-14T03:27:34;5.15;;;1.00;;
55368;SDS011;41247;49.736;8.752;2023-03-14T03:31:16;5.68;;;0.95;;
55368;SDS011;41247;49.736;8.752;2023-03-14T03:34:56;5.03;;;1.00;;
55368;SDS011;41247;49.736;8.752;2023-03-14T03:38:37;2.72;;;1.35;;
55368;SDS011;41247;49.736;8.752;2023-03-14T03:42:18;5.70;;;0.90;;
55368;SDS011;41247;49.736;8.752;2023-03-14T03:46:02;8.77;;;1.20;;
55368;SDS011;41247;49.736;8.752;2023-03-14T03:49:44;4.82;;;1.20;;
55368;SDS011;41247;49.736;8.752;2023-03-14T03:53:25;7.10;;;1.10;;
55368;SDS011;41247;49.736;8.752;2023-03-14T03:57:06;7.45;;;1.00;;
55368;SDS011;41247;49.736;8.752;2023-03-14T04:00:46;7.45;;;1.05;;
55368;SDS011;41247;49.736;8.752;2023-03-14T04:04:27;7.43;;;1.08;;
55368;SDS011;41247;49.736;8.752;2023-03-14T04:08:07;3.40;;;0.93;;
55368;SDS011;41247;49.736;8.752;2023-03-14T04:11:48;4.60;;;0.90;;
55368;SDS011;41247;49.736;8.752;2023-03-14T04:15:29;2.95;;;0.85;;
55368;SDS011;41247;49.736;8.752;2023-03-14T04:19:09;4.18;;;0.93;;
55368;SDS011;41247;49.736;8.752;2023-03-14T04:22:50;7.18;;;1.00;;
55368;SDS011;41247;49.736;8.752;2023-03-14T04:26:30;6.75;;;1.08;;
55368;SDS011;41247;49.736;8.752;2023-03-14T04:30:11;4.93;;;1.02;;
55368;SDS011;41247;49.736;8.752;2023-03-14T04:33:52;8.13;;;1.33;;
55368;SDS011;41247;49.736;8.752;2023-03-14T04:37:32;7.00;;;0.90;;
55368;SDS011;41247;49.736;8.752;2023-03-14T04:41:13;4.15;;;1.00;;
55368;SDS011;41247;49.736;8.752;2023-03-14T04:44:53;4.65;;;0.90;;
55368;SDS011;41247;49.736;8.752;2023-03-14T04:48:34;3.95;;;0.90;;
55368;SDS011;41247;49.736;8.752;2023-03-14T04:52:14;4.75;;;1.05;;
55368;SDS011;41247;49.736;8.752;2023-03-14T04:55:55;5.65;;;1.00;;
55368;SDS011;41247;49.736;8.752;2023-03-14T04:59:36;4.22;;;1.15;;
55368;SDS011;41247;49.736;8.752;2023-03-14T05:03:17;6.70;;;0.82;;
55368;SDS011;41247;49.736;8.752;2023-03-14T05:06:58;6.63;;;0.90;;
55368;SDS011;41247;49.736;8.752;2023-03-14T05:10:39;4.97;;;0.90;;
55368;SDS011;41247;49.736;8.752;2023-03-14T05:14:20;5.28;;;1.15;;
55368;SDS011;41247;49.736;8.752;2023-03-14T05:18:00;2.90;;;0.85;;
55368;SDS011;41247;49.736;8.752;2023-03-14T05:21:41;5.03;;;1.25;;
55368;SDS011;41247;49.736;8.752;2023-03-14T05:25:22;5.80;;;1.25;;
55368;SDS011;41247;49.736;8.752;2023-03-14T05:29:02;6.57;;;0.93;;
55368;SDS011;41247;49.736;8.752;2023-03-14T05:32:43;4.50;;;0.90;;
55368;SDS011;41247;49.736;8.752;2023-03-14T05:36:23;4.45;;;0.80;;
55368;SDS011;41247;49.736;8.752;2023-03-14T05:40:05;5.00;;;0.98;;
55368;SDS011;41247;49.736;8.752;2023-03-14T05:43:46;4.68;;;0.80;;
55368;SDS011;41247;49.736;8.752;2023-03-14T05:47:27;6.68;;;0.82;;
55368;SDS011;41247;49.736;8.752;2023-03-14T05:51:08;4.07;;;0.70;;
55368;SDS011;41247;49.736;8.752;2023-03-14T05:54:48;5.15;;;0.63;;
55368;SDS011;41247;49.736;8.752;2023-03-14T05:58:29;5.75;;;1.13;;
55368;SDS011;41247;49.736;8.752;2023-03-14T06:02:10;5.07;;;0.90;;
55368;SDS011;41247;49.736;8.752;2023-03-14T06:05:50;7.82;;;0.90;;
55368;SDS011;41247;49.736;8.752;2023-03-14T06:09:31;4.85;;;0.77;;
55368;SDS011;41247;49.736;8.752;2023-03-14T06:13:12;4.82;;;0.90;;
55368;SDS011;41247;49.736;8.752;2023-03-14T06:16:53;4.55;;;0.70;;
55368;SDS011;41247;49.736;8.752;2023-03-14T06:20:35;2.90;;;0.75;;
55368;SDS011;41247;49.736;8.752;2023-03-14T06:24:17;4.15;;;0.70;;
55368;SDS011;41247;49.736;8.752;2023-03-14T06:27:57;4.75;;;0.88;;
55368;SDS011;41247;49.736;8.752;2023-03-14T06:31:38;3.42;;;0.68;;
55368;SDS011;41247;49.736;8.752;2023-03-14T06:35:19;3.05;;;0.70;;
55368;SDS011;41247;49.736;8.752;2023-03-14T06:38:59;1.67;;;0.50;;
55368;SDS011;41247;49.736;8.752;2023-03-14T06:42:40;5.57;;;0.82;;
55368;SDS011;41247;49.736;8.752;2023-03-14T06:46:21;11.80;;;1.10;;
55368;SDS011;41247;49.736;8.752;2023-03-14T06:50:02;3.58;;;0.77;;
55368;SDS011;41247;49.736;8.752;2023-03-14T06:53:42;8.63;;;0.90;;
55368;SDS011;41247;49.736;8.752;2023-03-14T06:57:23;7.00;;;1.10;;
55368;SDS011;41247;49.736;8.752;2023-03-14T07:01:04;3.38;;;0.70;;
55368;SDS011;41247;49.736;8.752;2023-03-14T07:04:45;6.80;;;0.82;;
55368;SDS011;41247;49.736;8.752;2023-03-14T07:08:26;4.68;;;0.80;;
55368;SDS011;41247;49.736;8.752;2023-03-14T07:12:06;5.55;;;1.00;;
55368;SDS011;41247;49.736;8.752;2023-03-14T07:15:47;4.05;;;0.80;;
55368;SDS011;41247;49.736;8.752;2023-03-14T07:19:27;9.00;;;0.73;;
55368;SDS011;41247;49.736;8.752;2023-03-14T07:23:08;4.88;;;0.88;;
55368;SDS011;41247;49.736;8.752;2023-03-14T07:26:49;3.63;;;0.77;;
55368;SDS011;41247;49.736;8.752;2023-03-14T07:30:29;4.40;;;0.70;;
55368;SDS011;41247;49.736;8.752;2023-03-14T07:34:10;6.30;;;0.88;;
55368;SDS011;41247;49.736;8.752;2023-03-14T07:37:50;3.67;;;0.63;;
55368;SDS011;41247;49.736;8.752;2023-03-14T07:41:31;8.32;;;0.98;;
55368;SDS011;41247;49.736;8.752;2023-03-14T07:45:13;4.97;;;0.60;;
55368;SDS011;41247;49.736;8.752;2023-03-14T07:48:53;6.30;;;0.80;;
55368;SDS011;41247;49.736;8.752;2023-03-14T07:52:34;6.60;;;0.95;;
55368;SDS011;41247;49.736;8.752;2023-03-14T07:56:14;2.65;;;0.75;;
55368;SDS011;41247;49.736;8.752;2023-03-14T07:59:55;3.97;;;0.68;;
55368;SDS011;41247;49.736;8.752;2023-03-14T08:03:36;3.00;;;0.60;;
55368;SDS011;41247;49.736;8.752;2023-03-14T08:07:16;4.95;;;0.60;;
55368;SDS011;41247;49.736;8.752;2023-03-14T08:11:02;3.55;;;0.80;;
55368;SDS011;41247;49.736;8.752;2023-03-14T08:14:44;2.75;;;0.50;;
55368;SDS011;41247;49.736;8.752;2023-03-14T08:18:25;3.85;;;0.50;;
55368;SDS011;41247;49.736;8.752;2023-03-14T08:22:06;2.40;;;0.43;;
55368;SDS011;41247;49.736;8.752;2023-03-14T08:25:48;3.30;;;0.70;;
55368;SDS011;41247;49.736;8.752;2023-03-14T08:29:30;3.58;;;0.70;;
55368;SDS011;41247;49.736;8.752;2023-03-14T08:33:10;9.07;;;2.13;;
55368;SDS011;41247;49.736;8.752;2023-03-14T08:36:51;4.55;;;0.60;;
55368;SDS011;41247;49.736;8.752;2023-03-14T08:40:32;2.20;;;0.40;;
55368;SDS011;41247;49.736;8.752;2023-03-14T08:44:12;1.58;;;0.43;;
55368;SDS011;41247;49.736;8.752;2023-03-14T08:47:53;4.30;;;0.80;;
55368;SDS011;41247;49.736;8.752;2023-03-14T08:51:33;1.48;;;0.45;;
55368;SDS011;41247;49.736;8.752;2023-03-14T08:55:14;5.53;;;0.68;;
55368;SDS011;41247;49.736;8.752;2023-03-14T08:58:54;3.55;;;0.47;;
55368;SDS011;41247;49.736;8.752;2023-03-14T09:02:35;2.92;;;0.63;;
55368;SDS011;41247;49.736;8.752;2023-03-14T09:06:16;4.90;;;0.55;;
55368;SDS011;41247;49.736;8.752;2023-03-14T09:09:56;3.70;;;0.55;;
55368;SDS011;41247;49.736;8.752;2023-03-14T09:13:37;3.22;;;0.55;;
55368;SDS011;41247;49.736;8.752;2023-03-14T09:17:17;2.70;;;0.57;;
55368;SDS011;41247;49.736;8.752;2023-03-14T09:20:58;2.67;;;0.45;;
55368;SDS011;41247;49.736;8.752;2023-03-14T09:24:40;2.65;;;0.60;;
55368;SDS011;41247;49.736;8.752;2023-03-14T09:28:21;1.23;;;0.50;;
55368;SDS011;41247;49.736;8.752;2023-03-14T09:32:01;2.60;;;0.50;;
55368;SDS011;41247;49.736;8.752;2023-03-14T09:35:42;6.38;;;0.35;;
55368;SDS011;41247;49.736;8.752;2023-03-14T09:39:23;3.10;;;0.52;;
55368;SDS011;41247;49.736;8.752;2023-03-14T09:43:04;1.35;;;0.45;;
55368;SDS011;41247;49.736;8.752;2023-03-14T09:46:46;1.80;;;0.40;;
55368;SDS011;41247;49.736;8.752;2023-03-14T09:50:45;1.45;;;0.60;;
55368;SDS011;41247;49.736;8.752;2023-03-14T09:54:44;1.38;;;0.35;;
55368;SDS011;41247;49.736;8.752;2023-03-14T09:58:30;2.67;;;0.30;;
55368;SDS011;41247;49.736;8.752;2023-03-14T10:02:13;2.13;;;0.40;;
55368;SDS011;41247;49.736;8.752;2023-03-14T10:06:00;2.50;;;0.30;;
55368;SDS011;41247;49.736;8.752;2023-03-14T10:09:49;1.42;;;0.30;;
55368;SDS011;41247;49.736;8.752;2023-03-14T10:13:30;0.52;;;0.28;;
55368;SDS011;41247;49.736;8.752;2023-03-14T10:17:12;1.30;;;0.20;;
55368;SDS011;41247;49.736;8.752;2023-03-14T10:21:05;0.47;;;0.20;;
55368;SDS011;41247;49.736;8.752;2023-03-14T10:25:01;0.22;;;0.22;;
55368;SDS011;41247;49.736;8.752;2023-03-14T10:28:47;0.40;;;0.30;;
55368;SDS011;41247;49.736;8.752;2023-03-14T10:32:36;1.75;;;0.30;;
55368;SDS011;41247;49.736;8.752;2023-03-14T10:36:22;2.72;;;0.20;;
55368;SDS011;41247;49.736;8.752;2023-03-14T10:40:12;1.13;;;0.30;;
55368;SDS011;41247;49.736;8.752;2023-03-14T10:43:54;0.80;;;0.15;;
55368;SDS011;41247;49.736;8.752;2023-03-14T10:47:38;0.20;;;0.20;;
55368;SDS011;41247;49.736;8.752;2023-03-14T10:51:29;0.28;;;0.20;;
55368;SDS011;41247;49.736;8.752;2023-03-14T10:55:11;0.88;;;0.30;;
55368;SDS011;41247;49.736;8.752;2023-03-14T10:58:52;0.68;;;0.30;;
55368;SDS011;41247;49.736;8.752;2023-03-14T11:02:47;2.15;;;0.47;;
55368;SDS011;41247;49.736;8.752;2023-03-14T11:10:54;0.73;;;0.30;;
55368;SDS011;41247;49.736;8.752;2023-03-14T11:14:57;1.02;;;0.30;;
55368;SDS011;41247;49.736;8.752;2023-03-14T11:27:17;3.50;;;1.05;;
55368;SDS011;41247;49.736;8.752;2023-03-14T11:35:23;1.65;;;0.70;;
55368;SDS011;41247;49.736;8.752;2023-03-14T11:39:17;2.97;;;0.98;;
55368;SDS011;41247;49.736;8.752;2023-03-14T11:43:06;1.17;;;0.60;;
55368;SDS011;41247;49.736;8.752;2023-03-14T11:50:55;1.95;;;0.70;;
55368;SDS011;41247;49.736;8.752;2023-03-14T11:58:33;1.63;;;0.80;;
55368;SDS011;41247;49.736;8.752;2023-03-14T12:02:21;1.48;;;1.10;;
55368;SDS011;41247;49.736;8.752;2023-03-14T12:06:20;3.45;;;1.33;;
55368;SDS011;41247;49.736;8.752;2023-03-14T12:10:08;2.38;;;1.20;;
55368;SDS011;41247;49.736;8.752;2023-03-14T12:13:50;2.78;;;1.40;;
55368;SDS011;41247;49.736;8.752;2023-03-14T12:17:37;3.70;;;1.70;;
55368;SDS011;41247;49.736;8.752;2023-03-14T12:21:20;2.28;;;1.33;;
55368;SDS011;41247;49.736;8.752;2023-03-14T12:25:25;1.30;;;1.20;;
55368;SDS011;41247;49.736;8.752;2023-03-14T12:33:10;1.50;;;0.38;;
55368;SDS011;41247;49.736;8.752;2023-03-14T12:41:08;0.30;;;0.10;;
55368;SDS011;41247;49.736;8.752;2023-03-14T12:45:24;2.17;;;0.30;;
55368;SDS011;41247;49.736;8.752;2023-03-14T12:49:09;0.50;;;0.15;;
55368;SDS011;41247;49.736;8.752;2023-03-14T12:56:55;0.30;;;0.20;;
55368;SDS011;41247;49.736;8.752;2023-03-14T13:00:51;0.30;;;0.30;;
55368;SDS011;41247;49.736;8.752;2023-03-14T13:04:48;0.47;;;0.28;;
55368;SDS011;41247;49.736;8.752;2023-03-14T13:08:43;0.82;;;0.30;;
55368;SDS011;41247;49.736;8.752;2023-03-14T13:12:27;0.40;;;0.30;;
55368;SDS011;41247;49.736;8.752;2023-03-14T13:16:19;0.20;;;0.20;;
55368;SDS011;41247;49.736;8.752;2023-03-14T13:20:03;1.35;;;0.50;;
55368;SDS011;41247;49.736;8.752;2023-03-14T13:24:06;0.50;;;0.40;;
55368;SDS011;41247;49.736;8.752;2023-03-14T13:28:02;0.60;;;0.60;;
55368;SDS011;41247;49.736;8.752;2023-03-14T13:31:44;1.67;;;0.90;;
55368;SDS011;41247;49.736;8.752;2023-03-14T13:35:27;0.65;;;0.65;;
55368;SDS011;41247;49.736;8.752;2023-03-14T13:39:13;0.80;;;0.55;;
55368;SDS011;41247;49.736;8.752;2023-03-14T13:43:04;3.78;;;0.60;;
55368;SDS011;41247;49.736;8.752;2023-03-14T13:47:06;1.63;;;0.90;;
55368;SDS011;41247;49.736;8.752;2023-03-14T13:51:05;1.48;;;0.50;;
55368;SDS011;41247;49.736;8.752;2023-03-14T13:54:47;1.17;;;0.30;;
55368;SDS011;41247;49.736;8.752;2023-03-14T13:58:29;0.47;;;0.40;;
55368;SDS011;41247;49.736;8.752;2023-03-14T14:02:14;1.60;;;0.47;;
55368;SDS011;41247;49.736;8.752;2023-03-14T14:05:56;1.33;;;0.55;;
55368;SDS011;41247;49.736;8.752;2023-03-14T14:09:38;0.95;;;0.60;;
55368;SDS011;41247;49.736;8.752;2023-03-14T14:13:21;0.40;;;0.40;;
55368;SDS011;41247;49.736;8.752;2023-03-14T14:17:05;0.95;;;0.60;;
55368;SDS011;41247;49.736;8.752;2023-03-14T14:20:51;0.85;;;0.38;;
55368;SDS011;41247;49.736;8.752;2023-03-14T14:24:32;1.05;;;0.60;;
55368;SDS011;41247;49.736;8.752;2023-03-14T14:28:15;2.10;;;0.50;;
55368;SDS011;41247;49.736;8.752;2023-03-14T14:32:13;1.70;;;0.60;;
55368;SDS011;41247;49.736;8.752;2023-03-14T14:35:58;1.20;;;0.80;;
55368;SDS011;41247;49.736;8.752;2023-03-14T14:39:40;3.17;;;1.13;;
55368;SDS011;41247;49.736;8.752;2023-03-14T14:43:26;1.15;;;0.82;;
55368;SDS011;41247;49.736;8.752;2023-03-14T14:47:14;1.17;;;0.80;;
55368;SDS011;41247;49.736;8.752;2023-03-14T14:51:00;1.60;;;0.55;;
55368;SDS011;41247;49.736;8.752;2023-03-14T14:54:44;1.27;;;0.80;;
55368;SDS011;41247;49.736;8.752;2023-03-14T14:58:43;1.75;;;0.82;;
55368;SDS011;41247;49.736;8.752;2023-03-14T15:06:32;2.92;;;0.85;;
55368;SDS011;41247;49.736;8.752;2023-03-14T15:10:14;3.00;;;1.00;;
55368;SDS011;41247;49.736;8.752;2023-03-14T15:13:57;2.22;;;0.80;;
55368;SDS011;41247;49.736;8.752;2023-03-14T15:17:38;2.05;;;0.65;;
55368;SDS011;41247;49.736;8.752;2023-03-14T15:21:19;1.85;;;0.60;;
55368;SDS011;41247;49.736;8.752;2023-03-14T15:25:00;2.33;;;0.60;;
55368;SDS011;41247;49.736;8.752;2023-03-14T15:28:40;2.75;;;0.60;;
55368;SDS011;41247;49.736;8.752;2023-03-14T15:32:21;1.45;;;0.57;;
55368;SDS011;41247;49.736;8.752;2023-03-14T15:36:02;2.20;;;0.65;;
55368;SDS011;41247;49.736;8.752;2023-03-14T15:39:44;4.03;;;0.75;;
55368;SDS011;41247;49.736;8.752;2023-03-14T15:43:24;2.03;;;0.98;;
55368;SDS011;41247;49.736;8.752;2023-03-14T15:47:05;2.88;;;0.60;;
55368;SDS011;41247;49.736;8.752;2023-03-14T15:50:46;1.02;;;0.60;;
55368;SDS011;41247;49.736;8.752;2023-03-14T15:54:28;2.50;;;0.60;;
55368;SDS011;41247;49.736;8.752;2023-03-14T15:58:18;2.28;;;0.40;;
55368;SDS011;41247;49.736;8.752;2023-03-14T16:02:00;1.00;;;0.50;;
55368;SDS011;41247;49.736;8.752;2023-03-14T16:05:40;3.35;;;0.52;;
55368;SDS011;41247;49.736;8.752;2023-03-14T16:09:21;1.85;;;0.82;;
55368;SDS011;41247;49.736;8.752;2023-03-14T16:13:02;5.00;;;0.77;;
55368;SDS011;41247;49.736;8.752;2023-03-14T16:16:42;1.92;;;0.60;;
55368;SDS011;41247;49.736;8.752;2023-03-14T16:20:23;4.38;;;1.00;;
55368;SDS011;41247;49.736;8.752;2023-03-14T16:24:04;3.33;;;0.60;;
55368;SDS011;41247;49.736;8.752;2023-03-14T16:27:44;1.83;;;0.60;;
55368;SDS011;41247;49.736;8.752;2023-03-14T16:31:25;3.17;;;0.47;;
55368;SDS011;41247;49.736;8.752;2023-03-14T16:35:06;3.10;;;0.60;;
55368;SDS011;41247;49.736;8.752;2023-03-14T16:38:47;1.90;;;0.70;;
55368;SDS011;41247;49.736;8.752;2023-03-14T16:42:27;1.60;;;0.45;;
55368;SDS011;41247;49.736;8.752;2023-03-14T16:46:13;1.40;;;0.40;;
55368;SDS011;41247;49.736;8.752;2023-03-14T16:49:55;4.25;;;0.52;;
55368;SDS011;41247;49.736;8.752;2023-03-14T16:53:36;2.10;;;0.60;;
55368;SDS011;41247;49.736;8.752;2023-03-14T16:57:16;3.50;;;0.70;;
55368;SDS011;41247;49.736;8.752;2023-03-14T17:00:57;1.55;;;0.60;;
55368;SDS011;41247;49.736;8.752;2023-03-14T17:04:39;4.65;;;1.23;;
55368;SDS011;41247;49.736;8.752;2023-03-14T17:08:20;3.03;;;0.93;;
55368;SDS011;41247;49.736;8.752;2023-03-14T17:12:00;8.30;;;0.90;;
55368;SDS011;41247;49.736;8.752;2023-03-14T17:15:45;2.67;;;0.70;;
55368;SDS011;41247;49.736;8.752;2023-03-14T17:19:26;2.55;;;0.80;;
55368;SDS011;41247;49.736;8.752;2023-03-14T17:23:07;2.92;;;0.73;;
55368;SDS011;41247;49.736;8.752;2023-03-14T17:26:48;4.10;;;0.75;;
55368;SDS011;41247;49.736;8.752;2023-03-14T17:30:28;3.05;;;0.70;;
55368;SDS011;41247;49.736;8.752;2023-03-14T17:34:09;3.70;;;0.95;;
55368;SDS011;41247;49.736;8.752;2023-03-14T17:37:49;1.52;;;0.80;;
55368;SDS011;41247;49.736;8.752;2023-03-14T17:41:30;2.47;;;1.48;;
55368;SDS011;41247;49.736;8.752;2023-03-14T17:45:10;4.88;;;0.88;;
55368;SDS011;41247;49.736;8.752;2023-03-14T17:48:51;4.30;;;1.20;;
55368;SDS011;41247;49.736;8.752;2023-03-14T17:52:32;1.00;;;0.80;;
55368;SDS011;41247;49.736;8.752;2023-03-14T17:56:14;1.55;;;0.85;;
55368;SDS011;41247;49.736;8.752;2023-03-14T17:59:54;3.55;;;2.45;;
55368;SDS011;41247;49.736;8.752;2023-03-14T18:03:35;2.58;;;1.73;;
55368;SDS011;41247;49.736;8.752;2023-03-14T18:07:16;3.72;;;2.50;;
55368;SDS011;41247;49.736;8.752;2023-03-14T18:10:58;3.90;;;2.70;;
55368;SDS011;41247;49.736;8.752;2023-03-14T18:14:39;2.35;;;0.85;;
55368;SDS011;41247;49.736;8.752;2023-03-14T18:18:19;3.83;;;1.05;;
55368;SDS011;41247;49.736;8.752;2023-03-14T18:22:00;6.78;;;3.10;;
55368;SDS011;41247;49.736;8.752;2023-03-14T18:25:40;2.58;;;1.38;;
55368;SDS011;41247;49.736;8.752;2023-03-14T18:29:21;3.25;;;1.60;;
55368;SDS011;41247;49.736;8.752;2023-03-14T18:33:02;3.42;;;1.35;;
55368;SDS011;41247;49.736;8.752;2023-03-14T18:36:42;3.28;;;1.60;;
55368;SDS011;41247;49.736;8.752;2023-03-14T18:40:23;2.72;;;1.60;;
55368;SDS011;41247;49.736;8.752;2023-03-14T18:44:04;3.38;;;1.73;;
55368;SDS011;41247;49.736;8.752;2023-03-14T18:47:45;3.60;;;1.85;;
55368;SDS011;41247;49.736;8.752;2023-03-14T18:51:26;1.63;;;1.10;;
55368;SDS011;41247;49.736;8.752;2023-03-14T18:55:07;2.67;;;1.50;;
55368;SDS011;41247;49.736;8.752;2023-03-14T18:58:48;1.20;;;1.10;;
55368;SDS011;41247;49.736;8.752;2023-03-14T19:02:28;2.65;;;2.10;;
55368;SDS011;41247;49.736;8.752;2023-03-14T19:06:09;2.90;;;2.00;;
55368;SDS011;41247;49.736;8.752;2023-03-14T19:09:50;2.15;;;1.88;;
55368;SDS011;41247;49.736;8.752;2023-03-14T19:13:31;3.78;;;2.38;;
55368;SDS011;41247;49.736;8.752;2023-03-14T19:17:14;3.80;;;1.63;;
55368;SDS011;41247;49.736;8.752;2023-03-14T19:21:05;6.43;;;1.65;;
55368;SDS011;41247;49.736;8.752;2023-03-14T19:24:51;4.18;;;1.50;;
55368;SDS011;41247;49.736;8.752;2023-03-14T19:28:32;3.95;;;1.75;;
55368;SDS011;41247;49.736;8.752;2023-03-14T19:32:12;14.20;;;4.20;;
55368;SDS011;41247;49.736;8.752;2023-03-14T19:35:57;11.45;;;2.75;;
55368;SDS011;41247;49.736;8.752;2023-03-14T19:39:38;16.45;;;3.03;;
55368;SDS011;41247;49.736;8.752;2023-03-14T19:43:19;7.55;;;2.67;;
55368;SDS011;41247;49.736;8.752;2023-03-14T19:46:59;11.02;;;2.70;;
55368;SDS011;41247;49.736;8.752;2023-03-14T19:50:43;13.88;;;3.67;;
55368;SDS011;41247;49.736;8.752;2023-03-14T19:54:23;10.52;;;3.40;;
55368;SDS011;41247;49.736;8.752;2023-03-14T19:58:04;10.75;;;3.47;;
55368;SDS011;41247;49.736;8.752;2023-03-14T20:01:45;10.63;;;3.80;;
55368;SDS011;41247;49.736;8.752;2023-03-14T20:05:25;13.02;;;3.80;;
55368;SDS011;41247;49.736;8.752;2023-03-14T20:09:06;12.00;;;4.00;;
55368;SDS011;41247;49.736;8.752;2023-03-14T20:12:49;10.13;;;3.60;;
55368;SDS011;41247;49.736;8.752;2023-03-14T20:16:30;15.57;;;4.28;;
55368;SDS011;41247;49.736;8.752;2023-03-14T20:20:11;12.75;;;4.63;;
55368;SDS011;41247;49.736;8.752;2023-03-14T20:23:51;19.75;;;4.97;;
55368;SDS011;41247;49.736;8.752;2023-03-14T20:27:32;12.65;;;5.43;;
55368;SDS011;41247;49.736;8.752;2023-03-14T20:31:13;18.33;;;7.38;;
55368;SDS011;41247;49.736;8.752;2023-03-14T20:34:54;17.63;;;5.68;;
55368;SDS011;41247;49.736;8.752;2023-03-14T20:38:34;21.08;;;7.25;;
55368;SDS011;41247;49.736;8.752;2023-03-14T20:42:16;19.67;;;8.27;;
55368;SDS011;41247;49.736;8.752;2023-03-14T20:45:57;17.40;;;5.43;;
55368;SDS011;41247;49.736;8.752;2023-03-14T20:49:39;15.27;;;5.18;;
55368;SDS011;41247;49.736;8.752;2023-03-14T20:53:20;15.57;;;5.05;;
55368;SDS011;41247;49.736;8.752;2023-03-14T20:57:01;11.32;;;4.72;;
55368;SDS011;41247;49.736;8.752;2023-03-14T21:00:45;15.73;;;4.40;;
55368;SDS011;41247;49.736;8.752;2023-03-14T21:04:29;15.55;;;4.38;;
55368;SDS011;41247;49.736;8.752;2023-03-14T21:08:09;16.10;;;4.22;;
55368;SDS011;41247;49.736;8.752;2023-03-14T21:11:50;13.20;;;3.03;;
55368;SDS011;41247;49.736;8.752;2023-03-14T21:15:31;11.85;;;2.83;;
55368;SDS011;41247;49.736;8.752;2023-03-14T21:19:12;14.82;;;2.83;;
55368;SDS011;41247;49.736;8.752;2023-03-14T21:22:53;12.98;;;3.00;;
55368;SDS011;41247;49.736;8.752;2023-03-14T21:26:33;9.57;;;2.60;;
55368;SDS011;41247;49.736;8.752;2023-03-14T21:30:14;11.43;;;3.47;;
55368;SDS011;41247;49.736;8.752;2023-03-14T21:33:55;7.95;;;3.38;;
55368;SDS011;41247;49.736;8.752;2023-03-14T21:37:35;10.75;;;3.42;;
55368;SDS011;41247;49.736;8.752;2023-03-14T21:41:16;17.73;;;4.70;;
55368;SDS011;41247;49.736;8.752;2023-03-14T21:44:57;9.80;;;3.60;;
55368;SDS011;41247;49.736;8.752;2023-03-14T21:48:37;19.38;;;4.70;;
55368;SDS011;41247;49.736;8.752;2023-03-14T21:52:18;18.13;;;4.25;;
55368;SDS011;41247;49.736;8.752;2023-03-14T21:55:59;19.40;;;4.55;;
55368;SDS011;41247;49.736;8.752;2023-03-14T21:59:41;14.98;;;4.55;;
55368;SDS011;41247;49.736;8.752;2023-03-14T22:03:23;16.20;;;5.03;;
55368;SDS011;41247;49.736;8.752;2023-03-14T22:07:08;13.20;;;4.97;;
55368;SDS011;41247;49.736;8.752;2023-03-14T22:10:52;19.77;;;6.10;;
55368;SDS011;41247;49.736;8.752;2023-03-14T22:14:34;18.85;;;6.28;;
55368;SDS011;41247;49.736;8.752;2023-03-14T22:18:15;14.75;;;5.88;;
55368;SDS011;41247;49.736;8.752;2023-03-14T22:21:57;15.88;;;5.25;;
55368;SDS011;41247;49.736;8.752;2023-03-14T22:25:39;13.00;;;4.15;;
55368;SDS011;41247;49.736;8.752;2023-03-14T22:29:22;12.37;;;3.53;;
55368;SDS011;41247;49.736;8.752;2023-03-14T22:33:03;14.27;;;3.25;;
55368;SDS011;41247;49.736;8.752;2023-03-14T22:36:43;10.73;;;2.60;;
55368;SDS011;41247;49.736;8.752;2023-03-14T22:40:24;12.25;;;3.15;;
55368;SDS011;41247;49.736;8.752;2023-03-14T22:44:05;20.02;;;3.13;;
55368;SDS011;41247;49.736;8.752;2023-03-14T22:47:45;11.82;;;3.38;;
55368;SDS011;41247;49.736;8.752;2023-03-14T22:51:26;11.25;;;2.80;;
55368;SDS011;41247;49.736;8.752;2023-03-14T22:55:06;8.23;;;2.80;;
55368;SDS011;41247;49.736;8.752;2023-03-14T22:58:48;13.07;;;3.40;;
55368;SDS011;41247;49.736;8.752;2023-03-14T23:02:28;13.95;;;3.17;;
55368;SDS011;41247;49.736;8.752;2023-03-14T23:06:09;20.40;;;4.25;;
55368;SDS011;41247;49.736;8.752;2023-03-14T23:09:49;17.80;;;4.40;;